Terminal Aerodrome Forecast
Issued by NWS Binghamton, NY

Home | Current Version | Previous Version | Text Only | Print | Product List | Glossary On
Versions: 1 2 3 4 5 6 7 8 9 10 11 12 13 14 15 16 17 18 19
371
FTUS41 KBGM 162326
TAFBGM
TAF
KBGM 162326Z 1700/1724 33008KT P6SM BKN035
     FM170200 32005KT P6SM SCT035
     FM170400 VRB03KT P6SM SKC
     FM171400 23007KT P6SM SCT040=

USA.gov is the U.S. government's official web portal to all federal, state and local government web resources and services.